Acushnet, Massachusetts
Current Conditions -  °F | °C
As of 4:26 AM on Friday 24 Oct 2014 (Local Time) from KEWB Reporting Station
Overcast Overcast  
Wind Chill: 50°   Ceiling: 1000
Heat Index: 50°   Visibility: 10mi
Dew Point: 48°   Wind: 7mph
Humidity: 93%   Direction: 350°N
Pressure: 29.62"   Gusts: NA
Location:  41.68°N, 70.91°W
Report Text: KEWB 240826Z 35006KT 10SM BKN010 OVC016 10/09 A2962 RMK AO2 CIG 006V014 T01000089 $
Loading
Personal Weather Stations






























Interactive Weather Map
Tropical Storm Tracking
New forecast layout! Learn more

10-Day Weather Forecast

Advertisements
Track Severe Weather on mobile